Time;durP1;ratioP1;P1;durP2;ratioP2;P2;SDS_P1;SDS_P2;PMS_P1;PMS_P2;Temp;Humidity;BMP_temperature;BMP_pressure;BME280_temperature;BME280_humidity;BME280_pressure;Samples;Min_cycle;Max_cycle;Signal;HPM_P1;HPM_P2
2021/01/09 18:59:30;;;;;;;;;;;;;;;;;;4723847;27;20438;-68
2021/01/09 19:02:23;;;;;;;;;;;22.60;40.00;;;;;;4649588;27;80261;-65
2021/01/09 19:07:02;;;;;;;;;;;23.10;38.40;;;;;;4690295;27;80135;-63
2021/01/09 19:09:18;;;;;;;;;;;23.00;36.80;;;;;;4693942;27;91492;-62
2021/01/09 19:11:34;;;;;;;;;;;22.00;38.90;;;;;;4662081;28;91565;-68
2021/01/09 19:13:51;;;;;;;;;;;21.60;40.20;;;;;;4667702;28;91354;-67
2021/01/09 19:16:07;;;;;;;;;;;21.10;41.30;;;;;;4667510;28;92699;-68
2021/01/09 19:18:23;;;;;;;;;;;20.80;42.10;;;;;;4665572;28;92121;-72
2021/01/09 19:20:39;;;;;;;;;;;20.60;42.20;;;;;;4660681;28;92718;-71
2021/01/09 19:22:55;;;;;;;;;;;20.50;42.50;;;;;;4665087;28;92004;-71
2021/01/09 19:25:12;;;;;;;;;;;20.50;42.60;;;;;;4667000;28;91656;-71
2021/01/09 19:27:28;;;;;;;;;;;20.40;42.50;;;;;;4697551;22;91389;-72
2021/01/09 19:29:44;;;;;;;;;;;20.40;42.60;;;;;;4716626;27;86179;-73
2021/01/09 19:32:00;;;;;;;;;;;20.40;42.70;;;;;;4716312;27;87646;-73
2021/01/09 19:34:16;;;;;;;;;;;20.40;42.80;;;;;;4719029;27;89170;-73
2021/01/09 19:36:32;;;;;;;;;;;20.40;42.80;;;;;;4739282;27;86117;-72
2021/01/09 19:38:49;;;;;;;;;;;20.40;42.70;;;;;;4739870;27;85632;-72
2021/01/09 19:41:05;;;;;;;;;;;20.40;42.80;;;;;;4727456;27;85059;-72
2021/01/09 19:43:21;;;;;;;;;;;20.40;42.80;;;;;;4742862;27;85897;-72
2021/01/09 19:45:37;;;;;;;;;;;20.30;42.70;;;;;;4760737;27;87130;-73
2021/01/09 19:47:53;;;;;;;;;;;20.30;42.80;;;;;;4743314;27;85596;-73
2021/01/09 19:50:09;;;;;;;;;;;20.30;42.80;;;;;;4742405;27;79967;-72
2021/01/09 19:52:25;;;;;;;;;;;20.30;42.90;;;;;;4725832;27;92294;-73
2021/01/09 19:54:42;;;;;;;;;;;20.30;42.90;;;;;;4737130;27;91752;-72
2021/01/09 19:56:58;;;;;;;;;;;20.30;42.90;;;;;;4743124;27;93530;-73
2021/01/09 19:59:14;;;;;;;;;;;20.30;42.90;;;;;;4743208;27;92730;-73
2021/01/09 20:01:30;;;;;;;;;;;20.30;42.90;;;;;;4740443;27;91074;-72
2021/01/09 20:03:49;;;;;;;;;;;20.30;43.00;;;;;;4739355;27;92944;-72
2021/01/09 20:06:05;;;;;;;;;;;20.30;43.00;;;;;;4742512;27;93027;-72
2021/01/09 20:08:21;;;;;;;;;;;20.30;42.90;;;;;;4744694;27;93136;-72
2021/01/09 20:10:37;;;;;;;;;;;20.30;42.90;;;;;;4742492;27;93117;-73
2021/01/09 20:12:53;;;;;;;;;;;20.30;43.00;;;;;;4742825;27;93844;-73
2021/01/09 20:15:09;;;;;;;;;;;20.30;43.10;;;;;;4742579;27;92731;-72
2021/01/09 20:17:26;;;;;;;;;;;20.30;43.10;;;;;;4737395;27;91474;-72
2021/01/09 20:19:42;;;;;;;;;;;20.30;43.10;;;;;;4716571;27;91527;-73
2021/01/09 20:21:58;;;;;;;;;;;20.30;43.10;;;;;;4712843;27;92492;-73
2021/01/09 20:24:14;;;;;;;;;;;20.20;43.10;;;;;;4711675;27;92505;-72
2021/01/09 20:26:35;;;;;;;;;;;20.20;43.20;;;;;;4720446;27;91360;-72
2021/01/09 20:28:52;;;;;;;;;;;20.20;43.20;;;;;;4717133;27;93443;-72
2021/01/09 20:31:08;;;;;;;;;;;20.20;43.20;;;;;;4735639;27;92021;-72
2021/01/09 20:33:24;;;;;;;;;;;20.20;43.20;;;;;;4729090;27;88147;-73
2021/01/09 20:35:41;;;;;;;;;;;20.20;43.70;;;;;;4731405;27;88291;-85
2021/01/09 20:37:57;;;;;;;;;;;21.20;44.00;;;;;;4685492;27;86548;-84
